createdAt,value
2023-03-02T00:01:08.340Z,101887.03
2023-03-02T00:03:38.901Z,101880.94
2023-03-02T00:06:10.029Z,101881.50
2023-03-02T00:08:39.208Z,101890.13
2023-03-02T00:11:06.890Z,101882.22
2023-03-02T00:13:36.562Z,101881.22
2023-03-02T00:16:04.398Z,101879.50
2023-03-02T00:18:32.299Z,101887.19
2023-03-02T00:21:00.113Z,101887.97
2023-03-02T00:23:29.068Z,101888.69
2023-03-02T00:25:56.695Z,101885.06
2023-03-02T00:28:24.394Z,101879.88
2023-03-02T00:30:52.237Z,101887.56
2023-03-02T00:33:19.866Z,101883.97
2023-03-02T00:35:47.999Z,101874.22
2023-03-02T00:38:15.979Z,101873.22
2023-03-02T00:40:50.030Z,101874.00
2023-03-02T00:43:18.674Z,101874.69
2023-03-02T00:45:46.434Z,101872.00
2023-03-02T00:48:14.039Z,101872.66
2023-03-02T00:50:41.929Z,101876.06
2023-03-02T00:53:10.033Z,101870.66
2023-03-02T00:55:38.427Z,101874.94
2023-03-02T00:58:08.041Z,101874.03
2023-03-02T01:00:35.789Z,101873.84
2023-03-02T01:03:06.684Z,101880.59
2023-03-02T01:05:37.449Z,101876.22
2023-03-02T01:08:05.747Z,101870.78
2023-03-02T01:10:33.518Z,101869.88
2023-03-02T01:13:01.180Z,101873.16
2023-03-02T01:15:30.740Z,101866.94
2023-03-02T01:18:00.111Z,101859.81
2023-03-02T01:20:28.199Z,101864.00
2023-03-02T01:22:56.512Z,101847.41
2023-03-02T01:25:24.290Z,101853.31
2023-03-02T01:27:51.939Z,101861.09
2023-03-02T01:30:19.832Z,101852.28
2023-03-02T01:32:48.834Z,101855.78
2023-03-02T01:35:16.615Z,101854.75
2023-03-02T01:37:44.231Z,101858.16
2023-03-02T01:40:14.690Z,101844.06
2023-03-02T01:42:52.913Z,101855.34
2023-03-02T01:45:51.731Z,101845.66
2023-03-02T01:48:30.731Z,101849.03
2023-03-02T01:50:59.706Z,101834.03
2023-03-02T01:53:30.536Z,101840.00
2023-03-02T01:56:01.740Z,101842.72
2023-03-02T01:58:35.458Z,101835.56
2023-03-02T02:01:03.973Z,101839.75
2023-03-02T02:03:33.335Z,101832.66
2023-03-02T02:06:10.808Z,101828.38
2023-03-02T02:08:40.788Z,101822.16
2023-03-02T02:11:08.552Z,101812.44
2023-03-02T02:13:36.264Z,101813.38
2023-03-02T02:16:04.740Z,101816.75
2023-03-02T02:18:34.824Z,101813.25
2023-03-02T02:21:03.127Z,101807.03
2023-03-02T02:23:38.039Z,101796.63
2023-03-02T02:26:11.256Z,101801.75
2023-03-02T02:28:43.387Z,101804.22
2023-03-02T02:31:17.109Z,101807.59
2023-03-02T02:33:50.463Z,101805.69
2023-03-02T02:36:22.015Z,101812.56
2023-03-02T02:38:54.279Z,101805.59
2023-03-02T02:41:28.383Z,101810.66
2023-03-02T02:43:57.233Z,101807.06
2023-03-02T02:46:26.553Z,101806.03
2023-03-02T02:48:54.821Z,101806.84
2023-03-02T02:51:26.452Z,101805.00
2023-03-02T02:53:58.726Z,101797.00
2023-03-02T02:56:34.023Z,101796.88
2023-03-02T02:59:07.354Z,101794.16
2023-03-02T03:01:35.513Z,101794.88
2023-03-02T03:04:06.334Z,101803.44
2023-03-02T03:06:42.158Z,101798.94
2023-03-02T03:09:11.742Z,101804.00
2023-03-02T03:11:47.883Z,101801.28
2023-03-02T03:14:18.203Z,101796.09
2023-03-02T03:16:50.962Z,101798.56
2023-03-02T03:19:25.062Z,101800.28
2023-03-02T03:21:55.874Z,101799.38
2023-03-02T03:24:26.666Z,101802.75
2023-03-02T03:26:56.944Z,101800.06
2023-03-02T03:29:27.016Z,101808.63
2023-03-02T03:32:00.558Z,101795.56
2023-03-02T03:34:30.235Z,101801.41
2023-03-02T03:37:01.752Z,101803.88
2023-03-02T03:39:32.304Z,101810.78
2023-03-02T03:42:01.516Z,101813.25
2023-03-02T03:44:29.971Z,101812.47
2023-03-02T03:46:57.819Z,101816.75
2023-03-02T03:49:25.670Z,101816.84
2023-03-02T03:51:53.625Z,101814.03
2023-03-02T03:54:21.422Z,101816.63
2023-03-02T03:56:51.017Z,101820.91
2023-03-02T03:59:22.550Z,101819.09
2023-03-02T04:02:03.027Z,101823.50
2023-03-02T04:04:37.036Z,101815.63
2023-03-02T04:07:09.737Z,101809.66
2023-03-02T04:09:39.189Z,101803.66
2023-03-02T04:12:11.515Z,101804.47
2023-03-02T04:14:48.749Z,101805.34
2023-03-02T04:17:16.815Z,101795.75
2023-03-02T04:19:47.117Z,101801.75
2023-03-02T04:22:16.285Z,101799.03
2023-03-02T04:24:44.008Z,101799.03
2023-03-02T04:27:12.355Z,101801.50
2023-03-02T04:29:40.341Z,101791.13
2023-03-02T04:32:10.730Z,101791.91
2023-03-02T04:34:39.894Z,101794.41
2023-03-02T04:37:07.689Z,101784.81
2023-03-02T04:39:35.326Z,101788.19
2023-03-02T04:42:03.118Z,101782.09
2023-03-02T04:44:30.822Z,101782.09
2023-03-02T04:46:58.681Z,101794.19
2023-03-02T04:49:27.755Z,101781.88
2023-03-02T04:51:55.440Z,101792.25
2023-03-02T04:54:25.590Z,101787.75
2023-03-02T04:56:53.723Z,101789.41
2023-03-02T04:59:24.020Z,101785.16
2023-03-02T05:01:51.660Z,101781.63
2023-03-02T05:04:20.015Z,101784.16
2023-03-02T05:06:49.070Z,101784.03
2023-03-02T05:09:16.721Z,101785.69
2023-03-02T05:11:44.382Z,101778.72
2023-03-02T05:14:14.092Z,101778.59
2023-03-02T05:16:43.017Z,101782.91
2023-03-02T05:19:13.468Z,101783.66
2023-03-02T05:21:41.497Z,101785.25
2023-03-02T05:24:10.983Z,101775.66
2023-03-02T05:26:39.027Z,101779.06
2023-03-02T05:29:07.027Z,101778.94
2023-03-02T05:31:37.617Z,101786.72
2023-03-02T05:34:07.390Z,101781.41
2023-03-02T05:36:36.443Z,101780.72
2023-03-02T05:39:05.122Z,101784.13
2023-03-02T05:41:34.281Z,101785.00
2023-03-02T05:44:01.996Z,101785.25
2023-03-02T05:46:29.829Z,101785.38
2023-03-02T05:48:57.635Z,101791.56
2023-03-02T05:51:25.358Z,101790.00
2023-03-02T05:53:52.997Z,101791.00
2023-03-02T05:56:22.353Z,101788.63
2023-03-02T05:58:51.344Z,101789.88
2023-03-02T06:01:19.014Z,101791.00
2023-03-02T06:03:47.894Z,101792.13
2023-03-02T06:06:15.551Z,101792.59
2023-03-02T06:08:43.802Z,101788.53
2023-03-02T06:11:12.497Z,101787.19
2023-03-02T06:13:40.594Z,101789.31
2023-03-02T06:16:10.432Z,101792.25
2023-03-02T06:18:41.475Z,101794.28
2023-03-02T06:21:10.713Z,101799.81
2023-03-02T06:23:38.746Z,101800.94
2023-03-02T06:26:09.915Z,101803.00
2023-03-02T06:28:51.476Z,101803.31
2023-03-02T06:31:23.300Z,101802.88
2023-03-02T06:33:51.081Z,101813.69
2023-03-02T06:36:18.802Z,101802.72
2023-03-02T06:38:46.570Z,101810.06
2023-03-02T06:41:14.280Z,101812.06
2023-03-02T06:43:42.094Z,101819.63
2023-03-02T06:46:10.056Z,101822.56
2023-03-02T06:48:39.275Z,101827.38
2023-03-02T06:51:07.692Z,101819.16
2023-03-02T06:53:35.342Z,101817.78
2023-03-02T06:56:02.960Z,101825.88
2023-03-02T06:58:30.731Z,101818.41
2023-03-02T07:00:58.509Z,101820.53
2023-03-02T07:03:26.348Z,101813.06
2023-03-02T07:05:56.563Z,101815.16
2023-03-02T07:08:24.857Z,101823.41
2023-03-02T07:10:52.683Z,101816.81
2023-03-02T07:13:21.486Z,101818.94
2023-03-02T07:15:49.730Z,101824.69
2023-03-02T07:18:17.639Z,101813.78
2023-03-02T07:20:45.385Z,101823.81
2023-03-02T07:23:14.663Z,101820.63
2023-03-02T07:25:43.447Z,101819.25
2023-03-02T07:28:11.804Z,101817.84
2023-03-02T07:30:39.518Z,101809.44
2023-03-02T07:33:07.234Z,101807.25
2023-03-02T07:35:36.066Z,101801.56
2023-03-02T07:38:03.757Z,101816.78
2023-03-02T07:40:33.910Z,101804.19
2023-03-02T07:43:01.615Z,101802.88
2023-03-02T07:45:29.215Z,101801.50
2023-03-02T07:47:57.718Z,101804.47
2023-03-02T07:50:25.569Z,101805.78
2023-03-02T07:52:53.292Z,101808.00
2023-03-02T07:55:21.023Z,101817.91
2023-03-02T07:57:50.076Z,101819.91
2023-03-02T08:00:18.796Z,101817.69
2023-03-02T08:02:46.522Z,101807.59
2023-03-02T08:05:14.456Z,101815.78
2023-03-02T08:07:42.698Z,101821.50
2023-03-02T08:10:12.188Z,101822.78
2023-03-02T08:12:39.825Z,101827.59
2023-03-02T08:15:10.380Z,101821.94
2023-03-02T08:17:38.025Z,101822.25
2023-03-02T08:20:06.553Z,101827.81
2023-03-02T08:22:34.202Z,101820.41
2023-03-02T08:25:01.832Z,101821.47
2023-03-02T08:27:29.538Z,101819.97
2023-03-02T08:29:57.715Z,101821.16
2023-03-02T08:32:26.703Z,101820.66
2023-03-02T08:34:54.553Z,101818.41
2023-03-02T08:37:22.255Z,101834.53
2023-03-02T08:39:50.503Z,101821.75
2023-03-02T08:42:22.792Z,101821.03
2023-03-02T08:44:50.435Z,101826.38
2023-03-02T08:47:18.074Z,101821.34
2023-03-02T08:49:48.283Z,101822.50
2023-03-02T08:52:16.302Z,101827.09
2023-03-02T08:54:43.930Z,101822.41
2023-03-02T08:57:12.470Z,101817.47
2023-03-02T08:59:40.347Z,101818.66
2023-03-02T09:02:08.233Z,101821.63
2023-03-02T09:04:36.069Z,101816.59
2023-03-02T09:07:05.116Z,101809.94
2023-03-02T09:09:32.720Z,101814.53
2023-03-02T09:12:00.302Z,101813.88
2023-03-02T09:14:28.336Z,101814.16
2023-03-02T09:16:56.016Z,101816.22
2023-03-02T09:19:23.782Z,101812.97
2023-03-02T09:21:51.448Z,101810.78
2023-03-02T09:24:20.448Z,101815.50
2023-03-02T09:26:48.091Z,101812.22
2023-03-02T09:29:15.741Z,101822.97
2023-03-02T09:31:43.699Z,101809.25
2023-03-02T09:34:11.405Z,101814.91
2023-03-02T09:36:39.071Z,101813.38
2023-03-02T09:39:12.281Z,101811.00
2023-03-02T09:42:09.430Z,101807.75
2023-03-02T09:44:50.043Z,101805.56
2023-03-02T09:47:34.815Z,101810.47
2023-03-02T09:50:12.512Z,101819.81
2023-03-02T09:52:47.236Z,101813.22
2023-03-02T09:55:17.359Z,101807.31
2023-03-02T09:57:46.922Z,101812.97
2023-03-02T10:00:19.909Z,101804.63
2023-03-02T10:02:50.111Z,101812.00
2023-03-02T10:05:21.291Z,101807.00
2023-03-02T10:07:49.376Z,101795.97
2023-03-02T10:10:26.621Z,101801.63
2023-03-02T10:13:17.847Z,101793.16
2023-03-02T10:15:56.854Z,101788.44
2023-03-02T10:18:29.323Z,101791.44
2023-03-02T10:21:01.652Z,101782.19
2023-03-02T10:23:42.283Z,101779.81
2023-03-02T10:26:23.508Z,101776.50
2023-03-02T10:28:58.997Z,101783.69
2023-03-02T10:31:29.727Z,101790.97
2023-03-02T10:33:58.005Z,101801.00
2023-03-02T10:36:27.773Z,101803.09
2023-03-02T10:38:57.559Z,101801.53
2023-03-02T10:41:30.212Z,101800.88
2023-03-02T10:44:04.522Z,101798.56
2023-03-02T10:46:42.093Z,101801.41
2023-03-02T10:49:26.507Z,101806.88
2023-03-02T10:51:59.778Z,101794.81
2023-03-02T10:54:28.944Z,101790.78
2023-03-02T10:56:59.689Z,101785.75
2023-03-02T10:59:43.188Z,101782.72
2023-03-02T11:02:18.184Z,101795.38
2023-03-02T11:04:46.309Z,101787.75
2023-03-02T11:07:17.784Z,101787.88
2023-03-02T11:09:45.584Z,101775.00
2023-03-02T11:12:16.794Z,101780.53
2023-03-02T11:14:45.796Z,101771.13
2023-03-02T11:17:30.907Z,101768.81
2023-03-02T11:19:58.765Z,101767.44
2023-03-02T11:22:37.846Z,101761.41
2023-03-02T11:25:12.739Z,101756.53
2023-03-02T11:27:42.397Z,101757.69
2023-03-02T11:30:16.974Z,101766.69
2023-03-02T11:32:52.434Z,101756.38
2023-03-02T11:35:29.777Z,101759.97
2023-03-02T11:38:03.613Z,101760.38
2023-03-02T11:40:35.089Z,101750.91
2023-03-02T11:43:05.566Z,101751.31
2023-03-02T11:45:38.041Z,101747.91
2023-03-02T11:48:09.890Z,101739.38
2023-03-02T11:50:44.596Z,101740.16
2023-03-02T11:53:17.131Z,101735.06
2023-03-02T11:55:48.732Z,101740.38
2023-03-02T11:58:19.386Z,101735.88
2023-03-02T12:00:49.860Z,101737.84
2023-03-02T12:03:22.874Z,101738.06
2023-03-02T12:06:03.022Z,101733.91
2023-03-02T12:08:38.791Z,101734.22
2023-03-02T12:11:08.745Z,101724.03
2023-03-02T12:13:38.704Z,101723.97
2023-03-02T12:16:20.541Z,101718.91
2023-03-02T12:18:49.943Z,101731.53
2023-03-02T12:21:19.728Z,101725.59
2023-03-02T12:24:04.035Z,101719.66
2023-03-02T12:26:36.015Z,101717.03
2023-03-02T12:29:08.537Z,101717.91
2023-03-02T12:31:46.501Z,101718.88
2023-03-02T12:34:34.954Z,101716.50
2023-03-02T12:37:09.149Z,101714.88
2023-03-02T12:40:18.162Z,101706.41
2023-03-02T12:42:59.758Z,101700.31
2023-03-02T12:45:42.320Z,101702.28
2023-03-02T12:48:29.303Z,101699.91
2023-03-02T12:51:01.806Z,101688.84
2023-03-02T12:53:30.209Z,101683.72
2023-03-02T12:55:58.513Z,101686.47
2023-03-02T12:58:28.617Z,101677.56
2023-03-02T13:00:59.135Z,101675.84
2023-03-02T13:03:30.050Z,101674.25
2023-03-02T13:06:05.317Z,101670.00
2023-03-02T13:08:33.341Z,101660.47
2023-03-02T13:11:03.036Z,101665.00
2023-03-02T13:13:37.855Z,101663.38
2023-03-02T13:16:08.240Z,101673.13
2023-03-02T13:18:39.649Z,101668.75
2023-03-02T13:21:07.821Z,101656.47
2023-03-02T13:23:35.530Z,101653.91
2023-03-02T13:26:05.769Z,101653.03
2023-03-02T13:28:36.687Z,101659.91
2023-03-02T13:31:07.059Z,101654.41
2023-03-02T13:33:44.214Z,101652.47
2023-03-02T13:36:19.436Z,101656.03
2023-03-02T13:38:50.709Z,101650.66
2023-03-02T13:41:23.826Z,101648.81
2023-03-02T13:43:51.734Z,101641.75
2023-03-02T13:46:28.699Z,101651.50
2023-03-02T13:49:09.587Z,101641.88
2023-03-02T13:51:41.396Z,101625.31
2023-03-02T13:54:20.550Z,101625.53
2023-03-02T13:56:48.589Z,101634.38
2023-03-02T13:59:23.460Z,101617.81
2023-03-02T14:01:54.821Z,101622.91
2023-03-02T14:04:31.134Z,101618.50
2023-03-02T14:06:59.227Z,101624.63
2023-03-02T14:09:31.979Z,101622.91
2023-03-02T14:12:02.387Z,101623.78
2023-03-02T14:14:36.144Z,101615.88
2023-03-02T14:17:14.360Z,101620.22
2023-03-02T14:19:45.218Z,101613.22
2023-03-02T14:22:20.066Z,101603.59
2023-03-02T14:24:56.336Z,101603.53
2023-03-02T14:27:34.052Z,101589.63
2023-03-02T14:30:01.998Z,101590.03
2023-03-02T14:32:31.448Z,101592.88
2023-03-02T14:35:00.876Z,101584.84
2023-03-02T14:37:30.293Z,101586.47
2023-03-02T14:39:58.590Z,101574.25
2023-03-02T14:42:26.978Z,101574.44
2023-03-02T14:45:00.010Z,101572.81
2023-03-02T14:47:32.622Z,101573.72
2023-03-02T14:50:05.377Z,101577.19
2023-03-02T14:52:38.811Z,101577.13
2023-03-02T14:55:13.767Z,101575.19
2023-03-02T14:57:43.895Z,101574.34
2023-03-02T15:00:15.350Z,101568.03
2023-03-02T15:02:43.378Z,101573.91
2023-03-02T15:05:12.463Z,101568.38
2023-03-02T15:07:40.902Z,101576.94
2023-03-02T15:10:09.891Z,101567.84
2023-03-02T15:12:37.872Z,101570.09
2023-03-02T15:15:06.316Z,101567.84
2023-03-02T15:17:34.012Z,101570.03
2023-03-02T15:20:02.110Z,101571.44
2023-03-02T15:22:31.289Z,101572.69
2023-03-02T15:24:59.016Z,101571.50
2023-03-02T15:27:26.846Z,101572.88
2023-03-02T15:29:56.699Z,101556.88
2023-03-02T15:32:24.862Z,101569.75
2023-03-02T15:34:52.496Z,101566.75
2023-03-02T15:37:20.131Z,101566.38
2023-03-02T15:39:54.420Z,101558.94
2023-03-02T15:42:22.142Z,101556.97
2023-03-02T15:44:50.141Z,101562.81
2023-03-02T15:47:18.105Z,101565.38
2023-03-02T15:49:45.739Z,101564.28
2023-03-02T15:52:13.744Z,101565.00
2023-03-02T15:54:42.066Z,101563.06
2023-03-02T15:57:11.666Z,101553.22
2023-03-02T15:59:39.393Z,101563.44
2023-03-02T16:02:07.016Z,101560.63
2023-03-02T16:04:34.958Z,101563.00
2023-03-02T16:07:02.599Z,101564.38
2023-03-02T16:09:30.990Z,101564.16
2023-03-02T16:11:58.751Z,101561.31
2023-03-02T16:14:27.839Z,101564.59
2023-03-02T16:16:55.538Z,101567.03
2023-03-02T16:19:23.306Z,101559.66
2023-03-02T16:21:50.929Z,101560.34
2023-03-02T16:24:18.625Z,101570.50
2023-03-02T16:26:46.308Z,101571.06
2023-03-02T16:29:16.038Z,101563.66
2023-03-02T16:31:46.995Z,101576.19
2023-03-02T16:34:14.746Z,101575.69
2023-03-02T16:36:42.851Z,101579.59
2023-03-02T16:39:11.750Z,101577.44
2023-03-02T16:41:42.927Z,101574.53
2023-03-02T16:44:13.434Z,101578.66
2023-03-02T16:46:43.342Z,101585.09
2023-03-02T16:49:13.286Z,101589.06
2023-03-02T16:51:43.041Z,101592.22
2023-03-02T16:54:12.180Z,101584.13
2023-03-02T16:56:41.769Z,101590.78
2023-03-02T16:59:09.467Z,101599.31
2023-03-02T17:01:37.101Z,101599.16
2023-03-02T17:04:06.023Z,101598.97
2023-03-02T17:06:35.778Z,101590.09
2023-03-02T17:09:05.252Z,101606.53
2023-03-02T17:11:33.175Z,101607.09
2023-03-02T17:14:00.840Z,101606.91
2023-03-02T17:16:28.444Z,101618.97
2023-03-02T17:18:56.086Z,101609.19
2023-03-02T17:21:25.013Z,101618.69
2023-03-02T17:23:54.359Z,101614.09
2023-03-02T17:26:21.981Z,101617.38
2023-03-02T17:28:49.625Z,101623.34
2023-03-02T17:31:17.497Z,101621.47
2023-03-02T17:33:45.150Z,101626.53
2023-03-02T17:36:15.355Z,101627.34
2023-03-02T17:38:43.236Z,101630.53
2023-03-02T17:41:12.690Z,101627.75
2023-03-02T17:43:42.876Z,101632.91
2023-03-02T17:46:20.510Z,101634.47
2023-03-02T17:48:50.481Z,101634.38
2023-03-02T17:51:19.192Z,101634.25
2023-03-02T17:53:48.923Z,101633.22
2023-03-02T17:56:22.050Z,101636.59
2023-03-02T17:58:53.983Z,101631.19
2023-03-02T18:01:21.698Z,101639.94
2023-03-02T18:03:49.470Z,101632.03
2023-03-02T18:06:20.421Z,101631.97
2023-03-02T18:08:48.743Z,101643.28
2023-03-02T18:11:20.282Z,101631.88
2023-03-02T18:13:48.940Z,101634.22
2023-03-02T18:16:16.792Z,101638.56
2023-03-02T18:18:44.453Z,101633.34
2023-03-02T18:21:12.098Z,101638.56
2023-03-02T18:23:41.945Z,101637.63
2023-03-02T18:26:10.004Z,101641.91
2023-03-02T18:28:39.493Z,101645.25
2023-03-02T18:31:07.849Z,101647.78
2023-03-02T18:33:42.227Z,101646.81
2023-03-02T18:36:10.709Z,101649.34
2023-03-02T18:38:38.851Z,101662.41
2023-03-02T18:41:08.616Z,101670.06
2023-03-02T18:43:43.225Z,101674.41
2023-03-02T18:46:22.208Z,101663.88
2023-03-02T18:48:50.960Z,101671.69
2023-03-02T18:51:19.061Z,101676.00
2023-03-02T18:53:47.356Z,101670.72
2023-03-02T18:56:15.508Z,101672.31
2023-03-02T18:58:44.936Z,101676.66
2023-03-02T19:01:13.149Z,101677.31
2023-03-02T19:03:41.852Z,101678.22
2023-03-02T19:06:10.066Z,101675.50
2023-03-02T19:08:38.104Z,101678.91
2023-03-02T19:11:08.644Z,101686.63
2023-03-02T19:13:36.450Z,101684.06
2023-03-02T19:16:06.289Z,101683.06
2023-03-02T19:18:34.394Z,101668.31
2023-03-02T19:21:04.300Z,101670.94
2023-03-02T19:23:31.948Z,101667.41
2023-03-02T19:26:00.493Z,101666.59
2023-03-02T19:28:28.515Z,101668.31
2023-03-02T19:30:56.129Z,101674.44
2023-03-02T19:33:27.061Z,101674.53
2023-03-02T19:35:54.927Z,101673.69
2023-03-02T19:38:23.942Z,101672.72
2023-03-02T19:40:51.683Z,101673.59
2023-03-02T19:43:20.350Z,101671.84
2023-03-02T19:45:48.198Z,101676.16
2023-03-02T19:48:15.891Z,101678.78
2023-03-02T19:50:45.488Z,101688.31
2023-03-02T19:53:13.732Z,101682.19
2023-03-02T19:55:42.673Z,101679.50
2023-03-02T19:58:16.675Z,101681.13
2023-03-02T20:00:45.352Z,101678.41
2023-03-02T20:03:13.154Z,101680.06
2023-03-02T20:05:41.170Z,101684.31
2023-03-02T20:08:10.316Z,101679.06
2023-03-02T20:10:40.702Z,101689.53
2023-03-02T20:13:08.622Z,101684.31
2023-03-02T20:15:39.799Z,101677.19
2023-03-02T20:18:08.706Z,101680.69
2023-03-02T20:20:36.710Z,101679.69
2023-03-02T20:23:04.676Z,101678.81
2023-03-02T20:25:34.785Z,101681.34
2023-03-02T20:28:05.481Z,101683.06
2023-03-02T20:30:37.339Z,101679.53
2023-03-02T20:33:07.852Z,101673.31
2023-03-02T20:35:39.894Z,101670.63
2023-03-02T20:38:10.419Z,101671.44
2023-03-02T20:40:39.447Z,101661.81
2023-03-02T20:43:07.263Z,101666.84
2023-03-02T20:45:35.761Z,101673.59
2023-03-02T20:48:04.301Z,101680.66
2023-03-02T20:50:35.004Z,101678.91
2023-03-02T20:53:03.058Z,101683.25
2023-03-02T20:55:31.203Z,101694.59
2023-03-02T20:58:01.079Z,101686.75
2023-03-02T21:00:30.883Z,101701.63
2023-03-02T21:02:59.115Z,101694.69
2023-03-02T21:05:27.998Z,101695.56
2023-03-02T21:07:56.878Z,101695.56
2023-03-02T21:10:28.134Z,101702.59
2023-03-02T21:12:56.132Z,101702.59
2023-03-02T21:15:27.144Z,101692.16
2023-03-02T21:17:56.032Z,101695.66
2023-03-02T21:20:25.909Z,101693.03
2023-03-02T21:22:53.578Z,101697.38
2023-03-02T21:25:21.475Z,101687.81
2023-03-02T21:27:49.223Z,101687.91
2023-03-02T21:30:19.747Z,101689.63
2023-03-02T21:32:49.550Z,101694.03
2023-03-02T21:35:19.904Z,101685.31
2023-03-02T21:37:49.321Z,101682.78
2023-03-02T21:40:19.915Z,101695.84
2023-03-02T21:42:47.790Z,101685.13
2023-03-02T21:45:15.489Z,101677.09
2023-03-02T21:47:46.346Z,101679.66
2023-03-02T21:50:17.937Z,101676.03
2023-03-02T21:52:45.819Z,101674.25
2023-03-02T21:55:18.932Z,101686.25
2023-03-02T21:57:49.725Z,101676.50
2023-03-02T22:00:22.834Z,101684.34
2023-03-02T22:02:54.395Z,101685.97
2023-03-02T22:05:28.053Z,101685.00
2023-03-02T22:07:56.080Z,101678.84
2023-03-02T22:10:27.777Z,101684.91
2023-03-02T22:12:58.459Z,101687.41
2023-03-02T22:15:27.936Z,101688.06
2023-03-02T22:17:58.028Z,101691.38
2023-03-02T22:20:27.413Z,101688.59
2023-03-02T22:22:55.623Z,101682.47
2023-03-02T22:25:24.617Z,101689.31
2023-03-02T22:27:52.598Z,101695.44
2023-03-02T22:30:22.709Z,101687.69
2023-03-02T22:32:51.020Z,101695.44
2023-03-02T22:35:25.462Z,101687.41
2023-03-02T22:38:03.162Z,101682.94
2023-03-02T22:40:33.802Z,101688.94
2023-03-02T22:43:14.890Z,101693.19
2023-03-02T22:45:42.924Z,101690.38
2023-03-02T22:48:16.594Z,101688.41
2023-03-02T22:50:45.654Z,101680.50
2023-03-02T22:53:39.146Z,101675.19
2023-03-02T22:56:26.888Z,101675.09
2023-03-02T22:58:55.146Z,101670.69
2023-03-02T23:01:24.854Z,101667.28
2023-03-02T23:03:54.686Z,101666.19
2023-03-02T23:06:28.604Z,101676.53
2023-03-02T23:08:59.423Z,101663.31
2023-03-02T23:11:27.804Z,101667.63
2023-03-02T23:13:55.870Z,101666.75
2023-03-02T23:16:25.197Z,101662.22
2023-03-02T23:18:54.945Z,101664.75
2023-03-02T23:21:28.258Z,101665.47
2023-03-02T23:23:57.557Z,101662.78
2023-03-02T23:26:25.192Z,101667.00
2023-03-02T23:28:52.851Z,101661.69
2023-03-02T23:31:21.198Z,101658.25
2023-03-02T23:33:49.433Z,101652.25
2023-03-02T23:36:17.136Z,101646.84
2023-03-02T23:38:44.841Z,101643.25
2023-03-02T23:41:13.759Z,101638.03
2023-03-02T23:43:41.666Z,101634.44
2023-03-02T23:46:13.883Z,101637.06
2023-03-02T23:48:42.000Z,101637.06
2023-03-02T23:51:09.951Z,101626.72
2023-03-02T23:53:37.646Z,101632.91
2023-03-02T23:56:05.851Z,101637.31
2023-03-02T23:58:34.861Z,101639.22
